Time;durP1;ratioP1;P1;durP2;ratioP2;P2;SDS_P1;SDS_P2;PMS_P1;PMS_P2;Temp;Humidity;BMP_temperature;BMP_pressure;BME280_temperature;BME280_humidity;BME280_pressure;Samples;Min_cycle;Max_cycle;Signal;HPM_P1;HPM_P2
2024/01/01 00:01:12;;;;;;;;;;;1.60;99.90;;;;;;21111481;28;19916;-80
2024/01/01 00:11:13;;;;;;;;;;;1.70;99.90;;;;;;21115439;28;20005;-80
2024/01/01 00:21:13;;;;;;;;;;;1.80;99.90;;;;;;21110037;28;19916;-79
2024/01/01 00:31:14;;;;;;;;;;;1.80;99.90;;;;;;21104393;28;19919;-79
2024/01/01 00:41:15;;;;;;;;;;;1.60;99.90;;;;;;21102247;28;19998;-79
2024/01/01 00:51:16;;;;;;;;;;;1.50;99.90;;;;;;21084571;28;20367;-78
2024/01/01 01:01:17;;;;;;;;;;;1.20;99.90;;;;;;21082768;28;20513;-78
2024/01/01 01:11:17;;;;;;;;;;;1.10;99.90;;;;;;21101656;28;19957;-78
2024/01/01 01:21:18;;;;;;;;;;;1.60;99.90;;;;;;21099381;28;19970;-79
2024/01/01 01:31:18;;;;;;;;;;;1.70;99.90;;;;;;21098801;28;19935;-79
2024/01/01 01:41:20;;;;;;;;;;;1.60;99.90;;;;;;21095268;28;19962;-79
2024/01/01 01:51:21;;;;;;;;;;;1.80;99.90;;;;;;21094336;28;19912;-78
2024/01/01 02:01:21;;;;;;;;;;;2.70;99.90;;;;;;21094355;28;19916;-78
2024/01/01 02:11:22;;;;;;;;;;;2.20;99.90;;;;;;21081890;28;19938;-78
2024/01/01 02:21:24;;;;;;;;;;;2.90;99.90;;;;;;21082767;28;19970;-78
2024/01/01 02:31:24;;;;;;;;;;;3.20;99.90;;;;;;21090617;28;19919;-80
2024/01/01 02:41:25;;;;;;;;;;;2.90;99.90;;;;;;21096929;28;19920;-80
2024/01/01 02:51:26;;;;;;;;;;;2.60;99.90;;;;;;21091780;28;19965;-79
2024/01/01 03:01:26;;;;;;;;;;;2.90;99.90;;;;;;21114142;28;20338;-78
2024/01/01 03:11:27;;;;;;;;;;;3.00;99.90;;;;;;21133369;28;19912;-78
2024/01/01 03:21:28;;;;;;;;;;;3.20;99.90;;;;;;21100064;28;19916;-80
2024/01/01 03:31:28;;;;;;;;;;;3.20;99.90;;;;;;21102938;28;19916;-78
2024/01/01 03:41:29;;;;;;;;;;;3.20;99.90;;;;;;21089548;28;19916;-79
2024/01/01 03:51:30;;;;;;;;;;;3.30;99.90;;;;;;21089920;28;19912;-79
2024/01/01 04:01:31;;;;;;;;;;;3.40;99.90;;;;;;21104293;28;19923;-79
2024/01/01 04:11:32;;;;;;;;;;;3.40;99.90;;;;;;21089250;28;19912;-79
2024/01/01 04:21:32;;;;;;;;;;;3.50;99.90;;;;;;21086497;28;20346;-79
2024/01/01 04:31:33;;;;;;;;;;;3.60;99.90;;;;;;21105023;28;19912;-79
2024/01/01 04:41:34;;;;;;;;;;;3.60;99.90;;;;;;21102008;28;19971;-79
2024/01/01 04:51:35;;;;;;;;;;;3.70;99.90;;;;;;21101767;28;19912;-79
2024/01/01 05:01:35;;;;;;;;;;;3.90;99.90;;;;;;21101401;28;19923;-79
2024/01/01 05:11:40;;;;;;;;;;;4.00;99.90;;;;;;21099200;28;19981;-79
2024/01/01 05:21:40;;;;;;;;;;;4.00;99.90;;;;;;21097932;28;19962;-79
2024/01/01 05:31:41;;;;;;;;;;;4.00;99.90;;;;;;21096679;28;20373;-79
2024/01/01 05:41:41;;;;;;;;;;;4.10;99.90;;;;;;21098136;28;19922;-78
2024/01/01 05:51:42;;;;;;;;;;;4.00;99.90;;;;;;21098136;28;19946;-79
2024/01/01 06:01:43;;;;;;;;;;;4.00;99.90;;;;;;21104871;28;19916;-79
2024/01/01 06:11:43;;;;;;;;;;;3.90;99.90;;;;;;21106752;28;19938;-79
2024/01/01 06:21:44;;;;;;;;;;;4.00;99.90;;;;;;21111943;28;19923;-78
2024/01/01 06:31:45;;;;;;;;;;;4.00;99.90;;;;;;21108767;28;19935;-79
2024/01/01 06:41:46;;;;;;;;;;;4.10;99.90;;;;;;21106638;28;19923;-79
2024/01/01 06:51:50;;;;;;;;;;;4.10;99.90;;;;;;21105113;28;19912;-79
2024/01/01 07:01:51;;;;;;;;;;;4.00;99.90;;;;;;21107900;28;19973;-79
2024/01/01 07:11:56;;;;;;;;;;;4.00;99.90;;;;;;21087128;28;19912;-79
2024/01/01 07:21:56;;;;;;;;;;;4.00;99.90;;;;;;21098009;28;19923;-79
2024/01/01 07:31:57;;;;;;;;;;;4.10;99.90;;;;;;21102330;28;19911;-78
2024/01/01 07:41:58;;;;;;;;;;;4.30;99.90;;;;;;21098598;28;19923;-79
2024/01/01 07:51:59;;;;;;;;;;;4.10;99.90;;;;;;21094829;28;19916;-78
2024/01/01 08:02:00;;;;;;;;;;;4.10;99.90;;;;;;21099669;28;19923;-78
2024/01/01 08:12:01;;;;;;;;;;;4.30;99.90;;;;;;21094791;28;19918;-78
2024/01/01 08:22:02;;;;;;;;;;;4.40;99.90;;;;;;21091789;28;20283;-78
2024/01/01 08:32:03;;;;;;;;;;;4.40;99.90;;;;;;21093934;28;20379;-77
2024/01/01 08:42:04;;;;;;;;;;;5.10;99.90;;;;;;21092491;28;20400;-76
2024/01/01 08:52:04;;;;;;;;;;;5.20;99.90;;;;;;21090518;28;19970;-76
2024/01/01 09:02:05;;;;;;;;;;;5.60;99.90;;;;;;21090902;28;19989;-76
2024/01/01 09:12:06;;;;;;;;;;;5.50;99.90;;;;;;21091501;28;19946;-77
2024/01/01 09:22:08;;;;;;;;;;;5.80;99.90;;;;;;21090399;28;19962;-77
2024/01/01 09:32:09;;;;;;;;;;;7.80;99.90;;;;;;21095479;28;19912;-77
2024/01/01 09:42:09;;;;;;;;;;;9.00;99.90;;;;;;21086658;28;20374;-76
2024/01/01 09:52:14;;;;;;;;;;;8.60;99.90;;;;;;21069245;28;20504;-76
2024/01/01 10:02:14;;;;;;;;;;;8.60;99.90;;;;;;21086581;28;20018;-76
2024/01/01 10:12:16;;;;;;;;;;;7.80;99.90;;;;;;21080479;28;19959;-77
2024/01/01 10:22:18;;;;;;;;;;;7.50;99.90;;;;;;21089794;28;19916;-77
2024/01/01 10:32:19;;;;;;;;;;;8.10;99.90;;;;;;21090918;28;19916;-77
2024/01/01 10:42:19;;;;;;;;;;;7.70;99.90;;;;;;21086041;28;19916;-77
2024/01/01 10:52:40;;;;;;;;;;;7.70;99.90;;;;;;21102864;28;20290;-77
2024/01/01 11:02:41;;;;;;;;;;;7.50;99.90;;;;;;21109018;28;20011;-76
2024/01/01 11:12:42;;;;;;;;;;;7.50;99.90;;;;;;21113642;28;19920;-77
2024/01/01 11:22:43;;;;;;;;;;;7.40;99.90;;;;;;21107887;28;19920;-77
2024/01/01 11:32:44;;;;;;;;;;;7.00;99.90;;;;;;21094581;28;19915;-76
2024/01/01 11:42:44;;;;;;;;;;;6.50;99.90;;;;;;21084516;28;19976;-76
2024/01/01 11:52:58;;;;;;;;;;;6.20;99.90;;;;;;21068287;28;19979;-77
2024/01/01 12:02:58;;;;;;;;;;;6.30;99.90;;;;;;21097884;28;20062;-78
2024/01/01 12:12:59;;;;;;;;;;;6.30;99.90;;;;;;21079912;28;20546;-78
2024/01/01 12:23:13;;;;;;;;;;;6.50;99.90;;;;;;21097648;28;19923;-78
2024/01/01 12:33:13;;;;;;;;;;;6.70;99.90;;;;;;21091648;28;19962;-78
2024/01/01 12:43:14;;;;;;;;;;;6.90;99.90;;;;;;21094480;28;19916;-77
2024/01/01 12:53:15;;;;;;;;;;;7.10;99.90;;;;;;21097353;28;19918;-77
2024/01/01 13:03:15;;;;;;;;;;;7.00;99.90;;;;;;21087474;28;19962;-77
2024/01/01 13:13:16;;;;;;;;;;;7.00;99.90;;;;;;21081208;28;19913;-77
2024/01/01 13:23:17;;;;;;;;;;;7.00;99.90;;;;;;21086150;28;20011;-77
2024/01/01 13:33:18;;;;;;;;;;;7.10;99.90;;;;;;21084076;28;20378;-77
2024/01/01 13:43:19;;;;;;;;;;;7.00;99.90;;;;;;21072123;28;20353;-76
2024/01/01 13:53:19;;;;;;;;;;;7.10;99.90;;;;;;21075148;28;19920;-77
2024/01/01 14:03:20;;;;;;;;;;;7.10;99.90;;;;;;21088786;28;19923;-77
2024/01/01 14:13:23;;;;;;;;;;;7.00;99.90;;;;;;21085273;28;19920;-77
2024/01/01 14:23:24;;;;;;;;;;;7.10;99.90;;;;;;21096184;28;19920;-77
2024/01/01 14:33:24;;;;;;;;;;;6.90;99.90;;;;;;21098467;28;19912;-76
2024/01/01 14:43:25;;;;;;;;;;;7.30;99.90;;;;;;21091408;28;19916;-78
2024/01/01 14:53:26;;;;;;;;;;;7.90;99.90;;;;;;21090248;28;19974;-77
2024/01/01 15:03:26;;;;;;;;;;;9.10;99.90;;;;;;21089265;28;19916;-77
2024/01/01 15:13:27;;;;;;;;;;;9.80;99.90;;;;;;21068575;28;19912;-77
2024/01/01 15:23:28;;;;;;;;;;;9.10;99.90;;;;;;21086033;28;19939;-77
2024/01/01 15:33:29;;;;;;;;;;;8.10;99.90;;;;;;21086368;28;19916;-76
2024/01/01 15:43:29;;;;;;;;;;;7.30;99.90;;;;;;21091239;28;19922;-77
2024/01/01 15:53:30;;;;;;;;;;;6.70;99.90;;;;;;21094553;28;19919;-77
2024/01/01 16:03:31;;;;;;;;;;;6.00;99.90;;;;;;21095602;28;19942;-77
2024/01/01 16:13:31;;;;;;;;;;;5.50;99.90;;;;;;21091566;28;19912;-77
2024/01/01 16:23:32;;;;;;;;;;;5.30;99.90;;;;;;21093155;28;20389;-77
2024/01/01 16:33:33;;;;;;;;;;;5.10;99.90;;;;;;21094545;28;19912;-77
2024/01/01 16:43:34;;;;;;;;;;;5.00;99.90;;;;;;21089063;28;19916;-77
2024/01/01 16:53:36;;;;;;;;;;;4.80;99.90;;;;;;21090788;28;20006;-77
2024/01/01 17:03:37;;;;;;;;;;;4.60;99.90;;;;;;21071947;28;19916;-76
2024/01/01 17:13:41;;;;;;;;;;;4.10;99.90;;;;;;21087595;28;19919;-77
2024/01/01 17:23:42;;;;;;;;;;;3.90;99.90;;;;;;21087719;28;19923;-77
2024/01/01 17:33:45;;;;;;;;;;;3.70;99.90;;;;;;21086413;28;19991;-77
2024/01/01 17:43:46;;;;;;;;;;;3.60;99.90;;;;;;21085359;28;19916;-77
2024/01/01 17:53:47;;;;;;;;;;;3.60;99.90;;;;;;21084301;28;20336;-77
2024/01/01 18:03:48;;;;;;;;;;;3.30;99.90;;;;;;21066542;28;20370;-77
2024/01/01 18:13:50;;;;;;;;;;;3.40;99.90;;;;;;21058269;28;20053;-77
2024/01/01 18:23:52;;;;;;;;;;;3.40;99.90;;;;;;21076545;28;20367;-76
2024/01/01 18:33:53;;;;;;;;;;;3.00;99.90;;;;;;21073311;28;19912;-78
2024/01/01 18:43:53;;;;;;;;;;;3.00;99.90;;;;;;21096660;28;19926;-77
2024/01/01 18:53:54;;;;;;;;;;;3.00;99.90;;;;;;21103759;28;19916;-79
2024/01/01 19:03:55;;;;;;;;;;;2.70;99.90;;;;;;21103142;28;20006;-78
2024/01/01 19:13:55;;;;;;;;;;;2.60;99.90;;;;;;21121528;28;19919;-78
2024/01/01 19:23:57;;;;;;;;;;;2.60;99.90;;;;;;21101675;28;19923;-78
2024/01/01 19:33:58;;;;;;;;;;;2.50;99.90;;;;;;21100357;28;20379;-76
2024/01/01 19:43:59;;;;;;;;;;;2.20;99.90;;;;;;21100171;28;20022;-77
2024/01/01 19:54:00;;;;;;;;;;;1.90;99.90;;;;;;21104995;28;19927;-77
2024/01/01 20:04:00;;;;;;;;;;;1.80;99.90;;;;;;21103524;28;19916;-79
2024/01/01 20:14:03;;;;;;;;;;;1.80;99.90;;;;;;21084905;28;20462;-78
2024/01/01 20:24:04;;;;;;;;;;;1.80;99.90;;;;;;21097659;28;20433;-78
2024/01/01 20:34:04;;;;;;;;;;;1.80;99.90;;;;;;21100994;28;19920;-79
2024/01/01 20:44:08;;;;;;;;;;;1.70;99.90;;;;;;21104454;28;20016;-78
2024/01/01 20:54:08;;;;;;;;;;;1.70;99.90;;;;;;21101489;28;20567;-78
2024/01/01 21:04:09;;;;;;;;;;;1.40;99.90;;;;;;21097257;28;19916;-78
2024/01/01 21:14:10;;;;;;;;;;;1.40;99.90;;;;;;21091338;28;19919;-77
2024/01/01 21:24:10;;;;;;;;;;;1.60;99.90;;;;;;21081488;28;19923;-77
2024/01/01 21:34:11;;;;;;;;;;;1.30;99.90;;;;;;21084073;28;19958;-78
2024/01/01 21:44:12;;;;;;;;;;;1.50;99.90;;;;;;21089341;28;20350;-78
2024/01/01 21:54:13;;;;;;;;;;;1.70;99.90;;;;;;21089113;28;19920;-78
2024/01/01 22:04:13;;;;;;;;;;;1.70;99.90;;;;;;21086695;28;20422;-78
2024/01/01 22:14:14;;;;;;;;;;;1.20;99.90;;;;;;21082651;28;19916;-78
2024/01/01 22:24:15;;;;;;;;;;;1.30;99.90;;;;;;21083072;28;19998;-78
2024/01/01 22:34:15;;;;;;;;;;;1.50;99.90;;;;;;21082975;28;19912;-78
2024/01/01 22:44:16;;;;;;;;;;;1.50;99.90;;;;;;21096670;28;19915;-78
2024/01/01 22:54:17;;;;;;;;;;;1.40;99.90;;;;;;21099917;28;20407;-77
2024/01/01 23:04:17;;;;;;;;;;;1.30;99.90;;;;;;21097293;28;19916;-77
2024/01/01 23:14:18;;;;;;;;;;;1.10;99.90;;;;;;21099636;28;19916;-78
2024/01/01 23:24:19;;;;;;;;;;;1.20;99.90;;;;;;21099257;28;19931;-78
2024/01/01 23:34:20;;;;;;;;;;;1.40;99.90;;;;;;21099172;28;20307;-79
2024/01/01 23:44:20;;;;;;;;;;;1.10;99.90;;;;;;21078617;28;20367;-78
2024/01/01 23:54:21;;;;;;;;;;;1.40;99.90;;;;;;21076001;28;19916;-79
